createdAt,value
2023-04-26T00:00:50.038Z,7.90
2023-04-26T00:03:16.868Z,7.90
2023-04-26T00:05:43.748Z,7.80
2023-04-26T00:08:10.443Z,7.80
2023-04-26T00:10:37.234Z,7.80
2023-04-26T00:13:03.998Z,7.80
2023-04-26T00:15:30.893Z,7.70
2023-04-26T00:17:57.600Z,7.70
2023-04-26T00:20:24.795Z,7.60
2023-04-26T00:22:51.486Z,7.60
2023-04-26T00:25:18.344Z,7.60
2023-04-26T00:27:45.011Z,7.60
2023-04-26T00:30:12.209Z,7.60
2023-04-26T00:32:39.397Z,7.60
2023-04-26T00:35:06.521Z,7.60
2023-04-26T00:37:33.197Z,7.60
2023-04-26T00:39:59.866Z,7.60
2023-04-26T00:42:27.785Z,7.60
2023-04-26T00:44:57.363Z,7.60
2023-04-26T00:47:25.825Z,7.60
2023-04-26T00:49:53.230Z,7.60
2023-04-26T00:52:19.932Z,7.60
2023-04-26T00:54:48.752Z,7.60
2023-04-26T00:57:15.502Z,7.70
2023-04-26T00:59:42.164Z,7.60
2023-04-26T01:02:09.252Z,7.60
2023-04-26T01:04:37.241Z,7.50
2023-04-26T01:07:04.048Z,7.60
2023-04-26T01:09:32.085Z,7.60
2023-04-26T01:12:00.601Z,7.60
2023-04-26T01:14:28.238Z,7.50
2023-04-26T01:16:56.664Z,7.60
2023-04-26T01:19:23.440Z,7.50
2023-04-26T01:21:50.107Z,7.50
2023-04-26T01:24:16.862Z,7.50
2023-04-26T01:26:46.594Z,7.50
2023-04-26T01:29:20.378Z,7.40
2023-04-26T01:31:48.112Z,7.20
2023-04-26T01:34:15.684Z,7.20
2023-04-26T01:36:42.704Z,7.30
2023-04-26T01:39:09.573Z,7.30
2023-04-26T01:41:36.692Z,7.40
2023-04-26T01:44:03.974Z,7.40
2023-04-26T01:46:30.801Z,7.40
2023-04-26T01:48:57.668Z,7.40
2023-04-26T01:51:24.429Z,7.40
2023-04-26T01:53:51.155Z,7.40
2023-04-26T01:56:18.546Z,7.40
2023-04-26T01:58:45.648Z,7.40
2023-04-26T02:01:12.529Z,7.40
2023-04-26T02:03:39.427Z,7.30
2023-04-26T02:06:06.446Z,7.30
2023-04-26T02:08:33.589Z,7.20
2023-04-26T02:11:00.436Z,7.10
2023-04-26T02:13:27.335Z,7.10
2023-04-26T02:15:54.055Z,7.10
2023-04-26T02:18:22.548Z,6.90
2023-04-26T02:20:49.321Z,6.80
2023-04-26T02:23:16.624Z,6.80
2023-04-26T02:25:47.561Z,6.80
2023-04-26T02:28:16.323Z,6.90
2023-04-26T02:30:43.235Z,6.90
2023-04-26T02:33:10.134Z,6.90
2023-04-26T02:35:37.495Z,6.90
2023-04-26T02:38:04.506Z,6.90
2023-04-26T02:40:31.361Z,6.90
2023-04-26T02:42:58.109Z,6.90
2023-04-26T02:45:24.849Z,6.90
2023-04-26T02:47:51.590Z,6.90
2023-04-26T02:50:18.357Z,6.90
2023-04-26T02:52:45.039Z,6.90
2023-04-26T02:55:11.672Z,6.90
2023-04-26T02:57:38.554Z,6.90
2023-04-26T03:00:05.934Z,6.80
2023-04-26T03:02:33.404Z,6.90
2023-04-26T03:05:00.412Z,7.00
2023-04-26T03:07:27.167Z,7.00
2023-04-26T03:09:53.810Z,7.00
2023-04-26T03:12:20.480Z,7.00
2023-04-26T03:14:47.281Z,7.00
2023-04-26T03:17:13.971Z,7.00
2023-04-26T03:19:40.732Z,7.00
2023-04-26T03:22:07.588Z,6.90
2023-04-26T03:24:34.288Z,6.90
2023-04-26T03:27:01.177Z,6.90
2023-04-26T03:29:27.849Z,6.90
2023-04-26T03:31:54.736Z,6.90
2023-04-26T03:34:21.783Z,6.90
2023-04-26T03:36:48.522Z,7.00
2023-04-26T03:39:16.490Z,7.00
2023-04-26T03:41:43.275Z,7.00
2023-04-26T03:44:10.005Z,6.80
2023-04-26T03:46:36.669Z,6.60
2023-04-26T03:49:03.434Z,6.70
2023-04-26T03:51:31.441Z,6.80
2023-04-26T03:53:59.600Z,6.90
2023-04-26T03:56:26.270Z,6.80
2023-04-26T03:58:53.089Z,6.60
2023-04-26T04:01:20.579Z,6.50
2023-04-26T04:03:47.586Z,6.60
2023-04-26T04:06:14.554Z,6.80
2023-04-26T04:08:41.482Z,6.90
2023-04-26T04:11:08.154Z,6.90
2023-04-26T04:13:34.882Z,6.90
2023-04-26T04:16:01.724Z,6.90
2023-04-26T04:18:28.526Z,6.90
2023-04-26T04:20:55.249Z,6.90
2023-04-26T04:23:22.013Z,7.00
2023-04-26T04:25:49.192Z,7.00
2023-04-26T04:28:16.498Z,7.00
2023-04-26T04:30:44.227Z,7.10
2023-04-26T04:33:10.918Z,7.10
2023-04-26T04:35:37.633Z,7.20
2023-04-26T04:38:04.620Z,7.20
2023-04-26T04:40:31.406Z,7.20
2023-04-26T04:42:58.196Z,7.30
2023-04-26T04:45:24.894Z,7.30
2023-04-26T04:47:54.023Z,7.30
2023-04-26T04:50:21.788Z,7.20
2023-04-26T04:52:48.445Z,7.20
2023-04-26T04:55:15.142Z,7.20
2023-04-26T04:57:42.980Z,7.20
2023-04-26T05:00:10.772Z,7.30
2023-04-26T05:02:37.842Z,7.40
2023-04-26T05:05:05.610Z,7.40
2023-04-26T05:07:32.773Z,7.50
2023-04-26T05:10:00.186Z,7.50
2023-04-26T05:12:27.441Z,7.50
2023-04-26T05:14:54.146Z,7.50
2023-04-26T05:17:20.938Z,7.60
2023-04-26T05:19:48.249Z,7.60
2023-04-26T05:22:18.431Z,7.60
2023-04-26T05:24:47.024Z,7.60
2023-04-26T05:27:14.397Z,7.60
2023-04-26T05:29:41.834Z,7.60
2023-04-26T05:32:08.873Z,7.50
2023-04-26T05:34:36.758Z,7.50
2023-04-26T05:37:03.665Z,7.50
2023-04-26T05:39:30.755Z,7.60
2023-04-26T05:41:57.478Z,7.80
2023-04-26T05:44:24.670Z,7.90
2023-04-26T05:46:51.455Z,7.90
2023-04-26T05:49:18.253Z,7.90
2023-04-26T05:51:44.949Z,7.90
2023-04-26T05:54:11.711Z,8.00
2023-04-26T05:56:39.525Z,8.10
2023-04-26T05:59:06.214Z,8.10
2023-04-26T06:01:32.927Z,8.00
2023-04-26T06:04:01.202Z,8.00
2023-04-26T06:06:28.565Z,8.00
2023-04-26T06:08:55.674Z,8.00
2023-04-26T06:11:22.519Z,7.80
2023-04-26T06:13:49.473Z,8.00
2023-04-26T06:16:16.784Z,8.10
2023-04-26T06:18:43.886Z,8.20
2023-04-26T06:21:10.565Z,8.40
2023-04-26T06:23:37.286Z,8.40
2023-04-26T06:26:03.993Z,8.50
2023-04-26T06:28:31.070Z,8.60
2023-04-26T06:30:57.852Z,8.60
2023-04-26T06:33:24.607Z,8.50
2023-04-26T06:35:52.398Z,8.20
2023-04-26T06:38:19.115Z,8.20
2023-04-26T06:40:45.807Z,8.30
2023-04-26T06:43:12.481Z,8.30
2023-04-26T06:45:40.565Z,8.30
2023-04-26T06:48:08.496Z,8.30
2023-04-26T06:50:38.953Z,8.40
2023-04-26T06:53:07.037Z,8.40
2023-04-26T06:55:35.052Z,8.50
2023-04-26T06:58:01.856Z,8.50
2023-04-26T07:00:29.996Z,8.50
2023-04-26T07:02:57.337Z,8.50
2023-04-26T07:05:24.227Z,8.60
2023-04-26T07:07:50.983Z,8.80
2023-04-26T07:10:17.728Z,8.90
2023-04-26T07:12:44.873Z,8.90
2023-04-26T07:15:12.353Z,9.00
2023-04-26T07:17:39.224Z,9.10
2023-04-26T07:20:06.726Z,9.30
2023-04-26T07:22:33.459Z,9.40
2023-04-26T07:25:00.495Z,9.50
2023-04-26T07:27:27.262Z,9.60
2023-04-26T07:29:55.373Z,9.70
2023-04-26T07:32:22.346Z,9.70
2023-04-26T07:34:49.108Z,9.80
2023-04-26T07:37:16.164Z,9.80
2023-04-26T07:39:42.843Z,9.80
2023-04-26T07:42:09.556Z,9.80
2023-04-26T07:44:36.413Z,9.90
2023-04-26T07:47:03.332Z,10.00
2023-04-26T07:49:30.041Z,10.10
2023-04-26T07:51:58.208Z,10.10
2023-04-26T07:54:25.257Z,10.10
2023-04-26T07:56:51.920Z,10.20
2023-04-26T07:59:18.591Z,10.10
2023-04-26T08:01:45.344Z,10.30
2023-04-26T08:04:12.452Z,10.40
2023-04-26T08:06:44.939Z,10.60
2023-04-26T08:09:11.710Z,10.50
2023-04-26T08:11:38.463Z,10.60
2023-04-26T08:14:05.314Z,10.70
2023-04-26T08:16:32.165Z,10.80
2023-04-26T08:19:02.822Z,10.60
2023-04-26T08:21:29.733Z,10.50
2023-04-26T08:23:56.537Z,10.40
2023-04-26T08:26:23.523Z,10.40
2023-04-26T08:28:50.311Z,10.30
2023-04-26T08:31:17.812Z,10.30
2023-04-26T08:33:44.766Z,10.00
2023-04-26T08:36:11.508Z,9.80
2023-04-26T08:38:38.196Z,9.80
2023-04-26T08:41:05.504Z,9.80
2023-04-26T08:43:35.538Z,10.10
2023-04-26T08:46:03.863Z,10.60
2023-04-26T08:48:34.180Z,10.80
2023-04-26T08:51:01.811Z,11.30
2023-04-26T08:53:30.332Z,11.10
2023-04-26T08:55:58.145Z,11.30
2023-04-26T08:58:25.022Z,11.30
2023-04-26T09:00:52.338Z,11.60
2023-04-26T09:03:19.269Z,11.90
2023-04-26T09:05:46.097Z,12.10
2023-04-26T09:08:19.782Z,11.80
2023-04-26T09:10:46.692Z,11.50
2023-04-26T09:13:14.487Z,11.70
2023-04-26T09:15:41.885Z,11.50
2023-04-26T09:18:19.725Z,11.50
2023-04-26T09:21:01.850Z,11.30
2023-04-26T09:23:28.505Z,11.40
2023-04-26T09:25:55.467Z,11.60
2023-04-26T09:28:24.105Z,11.70
2023-04-26T09:30:50.922Z,11.70
2023-04-26T09:33:19.470Z,12.00
2023-04-26T09:35:46.502Z,12.10
2023-04-26T09:38:19.387Z,12.00
2023-04-26T09:40:47.796Z,11.90
2023-04-26T09:43:16.632Z,11.80
2023-04-26T09:45:47.229Z,12.00
2023-04-26T09:48:25.929Z,12.20
2023-04-26T09:50:56.862Z,12.20
2023-04-26T09:53:27.850Z,12.30
2023-04-26T09:56:08.173Z,12.50
2023-04-26T09:58:39.157Z,12.50
2023-04-26T10:01:08.552Z,12.50
2023-04-26T10:03:37.176Z,12.50
2023-04-26T10:06:04.800Z,12.40
2023-04-26T10:08:33.004Z,12.30
2023-04-26T10:11:01.820Z,12.30
2023-04-26T10:13:28.608Z,12.30
2023-04-26T10:15:56.578Z,12.40
2023-04-26T10:18:23.395Z,12.30
2023-04-26T10:20:53.711Z,12.00
2023-04-26T10:23:25.792Z,11.70
2023-04-26T10:25:53.182Z,11.70
2023-04-26T10:28:39.791Z,12.10
2023-04-26T10:31:07.775Z,12.50
2023-04-26T10:33:34.488Z,12.40
2023-04-26T10:36:07.228Z,12.20
2023-04-26T10:38:39.869Z,12.30
2023-04-26T10:41:33.282Z,12.30
2023-04-26T10:44:22.032Z,12.30
2023-04-26T10:46:55.073Z,12.40
2023-04-26T10:49:24.974Z,12.70
2023-04-26T10:52:12.775Z,12.90
2023-04-26T10:54:58.999Z,13.10
2023-04-26T10:57:49.666Z,13.40
2023-04-26T11:00:17.726Z,13.70
2023-04-26T11:02:58.106Z,13.80
2023-04-26T11:05:43.615Z,13.80
2023-04-26T11:08:30.203Z,13.80
2023-04-26T11:11:10.491Z,13.60
2023-04-26T11:13:38.661Z,13.30
2023-04-26T11:16:07.987Z,13.30
2023-04-26T11:18:36.582Z,13.40
2023-04-26T11:21:05.243Z,13.60
2023-04-26T11:23:32.262Z,13.60
2023-04-26T11:26:08.391Z,13.40
2023-04-26T11:28:37.317Z,13.40
2023-04-26T11:31:05.262Z,13.40
2023-04-26T11:33:34.213Z,13.50
2023-04-26T11:36:02.198Z,13.90
2023-04-26T11:38:29.446Z,13.40
2023-04-26T11:41:03.120Z,12.90
2023-04-26T11:43:36.765Z,12.80
2023-04-26T11:46:08.407Z,13.00
2023-04-26T11:48:37.516Z,13.20
2023-04-26T11:51:05.978Z,13.60
2023-04-26T11:53:42.996Z,13.70
2023-04-26T11:56:20.289Z,13.70
2023-04-26T11:58:52.786Z,14.10
2023-04-26T12:01:23.893Z,14.40
2023-04-26T12:03:53.001Z,14.40
2023-04-26T12:06:21.005Z,14.40
2023-04-26T12:08:53.802Z,14.10
2023-04-26T12:11:21.268Z,13.90
2023-04-26T12:13:48.410Z,13.90
2023-04-26T12:16:25.748Z,14.00
2023-04-26T12:18:55.288Z,14.30
2023-04-26T12:21:22.648Z,13.90
2023-04-26T12:23:49.483Z,13.70
2023-04-26T12:26:16.795Z,14.00
2023-04-26T12:28:44.066Z,14.40
2023-04-26T12:31:11.303Z,15.20
2023-04-26T12:33:38.127Z,16.10
2023-04-26T12:36:12.104Z,16.90
2023-04-26T12:38:39.954Z,16.90
2023-04-26T12:41:06.962Z,16.80
2023-04-26T12:43:33.776Z,16.50
2023-04-26T12:46:01.468Z,16.80
2023-04-26T12:48:28.936Z,17.00
2023-04-26T12:50:55.919Z,17.20
2023-04-26T12:53:22.803Z,17.60
2023-04-26T12:55:49.524Z,16.90
2023-04-26T12:58:16.436Z,16.30
2023-04-26T13:00:44.641Z,16.00
2023-04-26T13:03:14.549Z,16.20
2023-04-26T13:05:41.918Z,16.00
2023-04-26T13:08:08.883Z,16.30
2023-04-26T13:10:35.828Z,16.40
2023-04-26T13:13:02.773Z,16.20
2023-04-26T13:15:30.104Z,16.00
2023-04-26T13:17:57.036Z,16.20
2023-04-26T13:20:25.993Z,16.30
2023-04-26T13:22:54.006Z,17.00
2023-04-26T13:25:20.672Z,17.10
2023-04-26T13:27:47.399Z,16.60
2023-04-26T13:30:14.708Z,15.90
2023-04-26T13:32:41.480Z,15.60
2023-04-26T13:35:08.689Z,15.70
2023-04-26T13:37:35.707Z,15.80
2023-04-26T13:40:04.198Z,15.50
2023-04-26T13:42:31.977Z,15.20
2023-04-26T13:44:58.760Z,15.40
2023-04-26T13:47:25.850Z,15.60
2023-04-26T13:49:52.593Z,16.30
2023-04-26T13:52:19.279Z,17.10
2023-04-26T13:54:46.112Z,17.40
2023-04-26T13:57:13.022Z,17.10
2023-04-26T13:59:40.668Z,16.60
2023-04-26T14:02:07.513Z,15.60
2023-04-26T14:04:34.674Z,14.90
2023-04-26T14:07:01.609Z,14.70
2023-04-26T14:09:28.286Z,14.90
2023-04-26T14:12:07.362Z,15.00
2023-04-26T14:14:34.947Z,14.60
2023-04-26T14:17:01.859Z,14.90
2023-04-26T14:19:28.656Z,15.00
2023-04-26T14:21:55.442Z,15.20
2023-04-26T14:24:22.138Z,15.60
2023-04-26T14:26:49.002Z,15.90
2023-04-26T14:29:15.865Z,16.20
2023-04-26T14:31:42.593Z,16.00
2023-04-26T14:34:09.381Z,15.60
2023-04-26T14:36:36.153Z,15.80
2023-04-26T14:39:03.024Z,15.90
2023-04-26T14:41:29.681Z,16.40
2023-04-26T14:43:56.396Z,17.00
2023-04-26T14:46:23.194Z,17.40
2023-04-26T14:48:49.904Z,17.40
2023-04-26T14:51:16.798Z,17.40
2023-04-26T14:53:43.533Z,17.20
2023-04-26T14:56:10.258Z,16.60
2023-04-26T14:58:37.089Z,16.00
2023-04-26T15:01:04.500Z,15.50
2023-04-26T15:03:32.761Z,15.30
2023-04-26T15:06:00.179Z,15.30
2023-04-26T15:08:26.985Z,15.40
2023-04-26T15:10:53.970Z,16.20
2023-04-26T15:13:20.808Z,16.70
2023-04-26T15:15:47.540Z,17.30
2023-04-26T15:18:14.408Z,18.10
2023-04-26T15:20:41.575Z,18.70
2023-04-26T15:23:08.575Z,18.80
2023-04-26T15:25:36.887Z,18.00
2023-04-26T15:28:04.102Z,17.60
2023-04-26T15:30:31.069Z,17.50
2023-04-26T15:32:58.063Z,17.20
2023-04-26T15:35:25.138Z,17.00
2023-04-26T15:37:53.961Z,17.20
2023-04-26T15:40:22.224Z,17.60
2023-04-26T15:42:49.456Z,17.50
2023-04-26T15:45:16.824Z,17.30
2023-04-26T15:47:43.887Z,17.10
2023-04-26T15:50:10.953Z,16.90
2023-04-26T15:52:39.407Z,16.90
2023-04-26T15:55:07.449Z,16.80
2023-04-26T15:57:34.816Z,16.70
2023-04-26T16:00:01.819Z,16.40
2023-04-26T16:02:28.783Z,16.50
2023-04-26T16:04:56.400Z,16.40
2023-04-26T16:07:23.558Z,16.30
2023-04-26T16:09:50.522Z,16.10
2023-04-26T16:12:17.257Z,16.10
2023-04-26T16:14:43.946Z,15.50
2023-04-26T16:17:10.695Z,15.30
2023-04-26T16:19:37.549Z,15.00
2023-04-26T16:22:04.417Z,14.80
2023-04-26T16:24:31.249Z,14.90
2023-04-26T16:26:58.019Z,14.90
2023-04-26T16:29:25.250Z,15.00
2023-04-26T16:31:52.658Z,15.20
2023-04-26T16:34:20.044Z,15.50
2023-04-26T16:36:46.901Z,15.60
2023-04-26T16:39:15.757Z,15.60
2023-04-26T16:41:43.137Z,15.50
2023-04-26T16:44:10.221Z,15.40
2023-04-26T16:46:37.484Z,15.10
2023-04-26T16:49:09.420Z,14.70
2023-04-26T16:51:37.584Z,14.70
2023-04-26T16:54:04.469Z,14.80
2023-04-26T16:56:32.123Z,14.90
2023-04-26T16:58:59.192Z,15.00
2023-04-26T17:01:26.194Z,14.90
2023-04-26T17:03:53.302Z,14.90
2023-04-26T17:06:20.434Z,14.70
2023-04-26T17:08:47.582Z,14.40
2023-04-26T17:11:17.856Z,14.40
2023-04-26T17:13:45.096Z,14.20
2023-04-26T17:16:12.208Z,14.10
2023-04-26T17:18:38.961Z,14.00
2023-04-26T17:21:06.182Z,13.90
2023-04-26T17:23:33.772Z,13.80
2023-04-26T17:26:02.013Z,13.60
2023-04-26T17:28:28.925Z,13.50
2023-04-26T17:30:55.756Z,13.40
2023-04-26T17:33:23.112Z,13.50
2023-04-26T17:35:50.194Z,13.20
2023-04-26T17:38:17.090Z,13.20
2023-04-26T17:40:43.791Z,13.20
2023-04-26T17:43:11.467Z,13.20
2023-04-26T17:45:38.286Z,13.10
2023-04-26T17:48:05.598Z,13.10
2023-04-26T17:50:32.314Z,13.00
2023-04-26T17:52:59.049Z,13.00
2023-04-26T17:55:26.103Z,13.00
2023-04-26T17:57:52.831Z,12.80
2023-04-26T18:00:19.885Z,12.80
2023-04-26T18:02:47.324Z,12.60
2023-04-26T18:05:14.511Z,13.10
2023-04-26T18:07:41.376Z,12.50
2023-04-26T18:10:08.758Z,12.40
2023-04-26T18:12:36.291Z,12.30
2023-04-26T18:15:03.355Z,12.20
2023-04-26T18:17:30.255Z,12.20
2023-04-26T18:19:57.006Z,12.10
2023-04-26T18:22:23.737Z,12.00
2023-04-26T18:24:50.467Z,12.00
2023-04-26T18:27:17.246Z,11.60
2023-04-26T18:29:44.095Z,11.70
2023-04-26T18:32:10.854Z,11.70
2023-04-26T18:34:37.646Z,11.70
2023-04-26T18:37:04.901Z,11.60
2023-04-26T18:39:31.703Z,11.60
2023-04-26T18:41:58.477Z,11.50
2023-04-26T18:44:25.198Z,11.50
2023-04-26T18:46:55.730Z,11.40
2023-04-26T18:49:23.390Z,11.40
2023-04-26T18:51:50.303Z,11.40
2023-04-26T18:54:17.036Z,11.30
2023-04-26T18:56:44.099Z,11.30
2023-04-26T18:59:11.115Z,11.20
2023-04-26T19:01:37.928Z,11.20
2023-04-26T19:04:05.015Z,11.20
2023-04-26T19:06:33.108Z,11.20
2023-04-26T19:09:01.045Z,11.10
2023-04-26T19:11:27.769Z,11.10
2023-04-26T19:13:54.470Z,11.00
2023-04-26T19:16:21.276Z,11.50
2023-04-26T19:18:49.098Z,11.00
2023-04-26T19:21:16.309Z,11.00
2023-04-26T19:23:44.815Z,10.90
2023-04-26T19:26:12.853Z,10.90
2023-04-26T19:28:39.654Z,10.80
2023-04-26T19:31:06.690Z,10.80
2023-04-26T19:33:33.412Z,10.80
2023-04-26T19:36:00.119Z,10.80
2023-04-26T19:38:26.963Z,10.80
2023-04-26T19:40:53.662Z,10.80
2023-04-26T19:43:21.098Z,10.80
2023-04-26T19:45:48.058Z,10.80
2023-04-26T19:48:15.054Z,10.70
2023-04-26T19:50:43.312Z,10.80
2023-04-26T19:53:11.403Z,10.80
2023-04-26T19:55:38.738Z,10.70
2023-04-26T19:58:06.097Z,10.60
2023-04-26T20:00:36.179Z,10.60
2023-04-26T20:03:03.203Z,10.50
2023-04-26T20:05:30.031Z,10.60
2023-04-26T20:07:57.460Z,10.70
2023-04-26T20:10:24.906Z,10.70
2023-04-26T20:12:51.979Z,10.70
2023-04-26T20:15:19.247Z,10.60
2023-04-26T20:17:46.149Z,10.50
2023-04-26T20:20:13.141Z,10.40
2023-04-26T20:22:40.815Z,10.40
2023-04-26T20:25:08.151Z,10.40
2023-04-26T20:27:34.881Z,10.50
2023-04-26T20:30:01.762Z,10.50
2023-04-26T20:32:28.625Z,10.50
2023-04-26T20:34:55.410Z,10.50
2023-04-26T20:37:22.179Z,10.40
2023-04-26T20:39:49.164Z,10.40
2023-04-26T20:42:16.189Z,10.40
2023-04-26T20:44:43.221Z,10.40
2023-04-26T20:47:09.951Z,10.30
2023-04-26T20:49:36.739Z,10.30
2023-04-26T20:52:03.883Z,10.20
2023-04-26T20:54:31.244Z,10.20
2023-04-26T20:56:57.935Z,10.20
2023-04-26T20:59:25.238Z,10.20
2023-04-26T21:01:53.650Z,10.20
2023-04-26T21:04:20.924Z,10.10
2023-04-26T21:06:47.912Z,10.10
2023-04-26T21:09:14.639Z,10.10
2023-04-26T21:11:41.556Z,10.10
2023-04-26T21:14:09.137Z,10.10
2023-04-26T21:16:35.981Z,10.10
2023-04-26T21:19:03.353Z,10.00
2023-04-26T21:21:30.134Z,10.00
2023-04-26T21:23:56.842Z,10.00
2023-04-26T21:26:23.546Z,10.00
2023-04-26T21:28:50.304Z,9.90
2023-04-26T21:31:17.174Z,9.90
2023-04-26T21:33:43.911Z,9.90
2023-04-26T21:36:10.684Z,9.80
2023-04-26T21:38:37.366Z,9.80
2023-04-26T21:41:04.080Z,9.80
2023-04-26T21:43:31.098Z,9.80
2023-04-26T21:45:58.507Z,9.70
2023-04-26T21:48:26.222Z,9.70
2023-04-26T21:50:53.256Z,9.60
2023-04-26T21:53:19.929Z,9.60
2023-04-26T21:55:53.881Z,9.60
2023-04-26T21:58:21.509Z,9.50
2023-04-26T22:00:48.850Z,9.50
2023-04-26T22:03:16.483Z,9.40
2023-04-26T22:05:43.345Z,9.40
2023-04-26T22:08:10.085Z,9.40
2023-04-26T22:10:36.856Z,9.40
2023-04-26T22:13:03.673Z,9.30
2023-04-26T22:15:30.770Z,9.30
2023-04-26T22:17:57.619Z,9.30
2023-04-26T22:20:24.440Z,9.30
2023-04-26T22:22:51.137Z,9.30
2023-04-26T22:25:17.839Z,9.30
2023-04-26T22:27:44.520Z,9.30
2023-04-26T22:30:23.136Z,9.30
2023-04-26T22:32:52.828Z,9.30
2023-04-26T22:35:23.786Z,9.40
2023-04-26T22:37:50.819Z,9.40
2023-04-26T22:40:17.537Z,9.40
2023-04-26T22:42:44.779Z,9.30
2023-04-26T22:45:12.729Z,9.30
2023-04-26T22:47:40.888Z,9.30
2023-04-26T22:50:08.441Z,9.30
2023-04-26T22:52:35.793Z,9.30
2023-04-26T22:55:02.719Z,9.20
2023-04-26T22:57:30.096Z,9.20
2023-04-26T22:59:57.047Z,9.20
2023-04-26T23:02:24.298Z,9.10
2023-04-26T23:04:51.408Z,9.00
2023-04-26T23:07:18.182Z,9.00
2023-04-26T23:09:44.920Z,9.00
2023-04-26T23:12:11.763Z,9.00
2023-04-26T23:14:38.455Z,9.00
2023-04-26T23:17:05.742Z,9.00
2023-04-26T23:19:33.182Z,8.90
2023-04-26T23:22:00.170Z,8.90
2023-04-26T23:24:27.072Z,8.90
2023-04-26T23:26:54.044Z,9.00
2023-04-26T23:29:20.984Z,8.90
2023-04-26T23:31:47.826Z,8.80
2023-04-26T23:34:14.582Z,8.80
2023-04-26T23:36:41.581Z,8.70
2023-04-26T23:39:08.867Z,8.80
2023-04-26T23:41:35.893Z,8.80
2023-04-26T23:44:02.599Z,8.80
2023-04-26T23:46:29.419Z,8.70
2023-04-26T23:48:56.283Z,8.70
2023-04-26T23:51:23.004Z,8.60
2023-04-26T23:53:49.708Z,8.60
2023-04-26T23:56:16.515Z,8.60
2023-04-26T23:58:43.164Z,8.50
